createdAt,value
2018-04-14T00:01:01.386Z,201
2018-04-14T00:02:08.591Z,201
2018-04-14T00:03:15.806Z,200
2018-04-14T00:04:23.048Z,202
2018-04-14T00:05:30.268Z,202
2018-04-14T00:06:37.479Z,201
2018-04-14T00:07:44.425Z,202
2018-04-14T00:08:51.628Z,201
2018-04-14T00:09:58.589Z,201
2018-04-14T00:11:05.802Z,201
2018-04-14T00:12:13.005Z,201
2018-04-14T00:13:20.213Z,201
2018-04-14T00:14:27.432Z,201
2018-04-14T00:15:34.639Z,201
2018-04-14T00:16:41.861Z,201
2018-04-14T00:17:49.064Z,201
2018-04-14T00:18:56.271Z,202
2018-04-14T00:20:03.477Z,201
2018-04-14T00:21:10.694Z,201
2018-04-14T00:22:17.613Z,201
2018-04-14T00:23:24.830Z,201
2018-04-14T00:24:32.028Z,201
2018-04-14T00:25:38.948Z,201
2018-04-14T00:26:46.149Z,202
2018-04-14T00:27:53.351Z,201
2018-04-14T00:29:00.551Z,201
2018-04-14T00:30:07.754Z,202
2018-04-14T00:31:14.956Z,202
2018-04-14T00:32:22.154Z,202
2018-04-14T00:33:29.363Z,202
2018-04-14T00:34:36.568Z,202
2018-04-14T00:35:43.516Z,202
2018-04-14T00:36:50.722Z,202
2018-04-14T00:37:57.936Z,201
2018-04-14T00:39:05.159Z,202
2018-04-14T00:40:12.382Z,202
2018-04-14T00:41:19.595Z,202
2018-04-14T00:42:26.799Z,202
2018-04-14T00:43:34.005Z,202
2018-04-14T00:44:55.857Z,202
2018-04-14T00:46:02.787Z,202
2018-04-14T00:47:09.992Z,202
2018-04-14T00:48:16.925Z,202
2018-04-14T00:49:24.138Z,202
2018-04-14T00:50:31.342Z,202
2018-04-14T00:51:38.633Z,202
2018-04-14T00:52:45.838Z,202
2018-04-14T00:53:53.068Z,202
2018-04-14T00:55:00.271Z,202
2018-04-14T00:56:07.750Z,202
2018-04-14T00:57:14.951Z,202
2018-04-14T00:58:21.331Z,202
2018-04-14T00:59:28.543Z,202
2018-04-14T01:00:35.741Z,202
2018-04-14T01:01:42.947Z,202
2018-04-14T01:02:50.156Z,202
2018-04-14T01:03:57.379Z,202
2018-04-14T01:05:04.585Z,202
2018-04-14T01:06:11.816Z,202
2018-04-14T01:07:19.009Z,202
2018-04-14T01:08:26.211Z,201
2018-04-14T01:09:33.417Z,202
2018-04-14T01:10:40.622Z,201
2018-04-14T01:11:47.826Z,201
2018-04-14T01:12:55.035Z,201
2018-04-14T01:14:01.996Z,201
2018-04-14T01:15:08.930Z,202
2018-04-14T01:16:16.131Z,202
2018-04-14T01:17:23.336Z,202
2018-04-14T01:18:30.269Z,201
2018-04-14T01:19:37.472Z,202
2018-04-14T01:20:44.394Z,202
2018-04-14T01:21:51.590Z,202
2018-04-14T01:22:58.516Z,202
2018-04-14T01:24:05.716Z,202
2018-04-14T01:25:12.644Z,202
2018-04-14T01:26:19.866Z,202
2018-04-14T01:27:26.804Z,202
2018-04-14T01:28:33.729Z,203
2018-04-14T01:29:40.935Z,203
2018-04-14T01:30:48.134Z,202
2018-04-14T01:31:55.063Z,203
2018-04-14T01:33:02.267Z,203
2018-04-14T01:34:09.465Z,203
2018-04-14T01:35:16.668Z,212
2018-04-14T01:36:23.593Z,210
2018-04-14T01:37:30.813Z,209
2018-04-14T01:38:38.018Z,209
2018-04-14T01:39:45.240Z,209
2018-04-14T01:40:52.448Z,209
2018-04-14T01:41:59.667Z,208
2018-04-14T01:43:06.588Z,208
2018-04-14T01:44:13.794Z,208
2018-04-14T01:45:20.991Z,209
2018-04-14T01:46:28.197Z,208
2018-04-14T01:47:35.396Z,207
2018-04-14T01:48:42.616Z,207
2018-04-14T01:49:49.819Z,207
2018-04-14T01:50:57.031Z,207
2018-04-14T01:52:04.226Z,208
2018-04-14T01:53:11.442Z,207
2018-04-14T01:54:18.648Z,208
2018-04-14T01:55:25.866Z,207
2018-04-14T01:56:33.078Z,207
2018-04-14T01:57:40.293Z,208
2018-04-14T01:58:47.494Z,208
2018-04-14T01:59:54.912Z,208
2018-04-14T02:01:02.122Z,208
2018-04-14T02:02:09.319Z,208
2018-04-14T02:03:16.525Z,208
2018-04-14T02:04:23.730Z,208
2018-04-14T02:05:30.929Z,208
2018-04-14T02:06:38.139Z,208
2018-04-14T02:07:45.347Z,208
2018-04-14T02:08:52.581Z,207
2018-04-14T02:09:59.791Z,206
2018-04-14T02:11:06.996Z,207
2018-04-14T02:12:14.212Z,206
2018-04-14T02:13:21.132Z,207
2018-04-14T02:14:28.031Z,206
2018-04-14T02:15:35.235Z,207
2018-04-14T02:16:42.167Z,207
2018-04-14T02:17:49.369Z,207
2018-04-14T02:18:56.586Z,207
2018-04-14T02:20:03.792Z,207
2018-04-14T02:21:10.990Z,206
2018-04-14T02:22:18.194Z,207
2018-04-14T02:23:25.426Z,206
2018-04-14T02:24:32.634Z,206
2018-04-14T02:25:39.842Z,206
2018-04-14T02:26:46.770Z,206
2018-04-14T02:27:53.703Z,207
2018-04-14T02:29:00.924Z,207
2018-04-14T02:30:08.136Z,207
2018-04-14T02:31:15.073Z,207
2018-04-14T02:32:22.287Z,207
2018-04-14T02:33:29.213Z,207
2018-04-14T02:34:36.420Z,207
2018-04-14T02:35:43.653Z,207
2018-04-14T02:36:50.859Z,207
2018-04-14T02:37:57.796Z,207
2018-04-14T02:39:04.729Z,207
2018-04-14T02:40:11.941Z,207
2018-04-14T02:41:19.145Z,207
2018-04-14T02:42:26.346Z,207
2018-04-14T02:43:33.548Z,207
2018-04-14T02:44:40.750Z,207
2018-04-14T02:45:47.954Z,206
2018-04-14T02:46:55.152Z,207
2018-04-14T02:48:02.051Z,207
2018-04-14T02:49:09.285Z,207
2018-04-14T02:50:16.490Z,207
2018-04-14T02:51:23.706Z,206
2018-04-14T02:52:30.908Z,207
2018-04-14T02:53:38.113Z,206
2018-04-14T02:54:45.333Z,206
2018-04-14T02:55:52.557Z,206
2018-04-14T02:56:59.765Z,207
2018-04-14T02:58:07.016Z,206
2018-04-14T02:59:14.217Z,207
2018-04-14T03:00:21.427Z,207
2018-04-14T03:01:43.282Z,206
2018-04-14T03:02:50.495Z,206
2018-04-14T03:03:57.694Z,207
2018-04-14T03:05:04.917Z,207
2018-04-14T03:06:12.124Z,207
2018-04-14T03:07:19.327Z,207
2018-04-14T03:08:26.532Z,207
2018-04-14T03:09:33.736Z,207
2018-04-14T03:10:40.931Z,206
2018-04-14T03:11:48.126Z,206
2018-04-14T03:12:55.330Z,206
2018-04-14T03:14:02.580Z,207
2018-04-14T03:15:09.781Z,206
2018-04-14T03:16:16.981Z,207
2018-04-14T03:17:24.421Z,207
2018-04-14T03:18:31.348Z,207
2018-04-14T03:19:38.568Z,206
2018-04-14T03:20:45.774Z,207
2018-04-14T03:21:52.993Z,206
2018-04-14T03:23:00.195Z,206
2018-04-14T03:24:07.396Z,206
2018-04-14T03:25:14.322Z,206
2018-04-14T03:26:21.545Z,206
2018-04-14T03:27:28.747Z,206
2018-04-14T03:28:35.681Z,207
2018-04-14T03:29:42.878Z,206
2018-04-14T03:30:50.079Z,206
2018-04-14T03:31:57.283Z,206
2018-04-14T03:33:04.523Z,207
2018-04-14T03:34:11.785Z,206
2018-04-14T03:35:18.977Z,207
2018-04-14T03:36:26.176Z,207
2018-04-14T03:37:33.392Z,207
2018-04-14T03:38:40.602Z,207
2018-04-14T03:39:47.808Z,207
2018-04-14T03:40:54.742Z,207
2018-04-14T03:42:01.941Z,206
2018-04-14T03:43:08.865Z,207
2018-04-14T03:44:15.814Z,207
2018-04-14T03:45:23.019Z,207
2018-04-14T03:46:30.233Z,206
2018-04-14T03:47:37.166Z,206
2018-04-14T03:48:44.112Z,207
2018-04-14T03:49:51.319Z,206
2018-04-14T03:50:58.535Z,206
2018-04-14T03:52:05.737Z,207
2018-04-14T03:53:12.944Z,206
2018-04-14T03:54:20.149Z,207
2018-04-14T03:55:27.382Z,206
2018-04-14T03:56:34.590Z,206
2018-04-14T03:57:41.523Z,207
2018-04-14T03:58:48.723Z,207
2018-04-14T03:59:55.931Z,207
2018-04-14T04:01:03.140Z,207
2018-04-14T04:02:10.346Z,207
2018-04-14T04:03:17.547Z,207
2018-04-14T04:04:24.759Z,206
2018-04-14T04:05:31.977Z,206
2018-04-14T04:06:39.182Z,206
2018-04-14T04:07:46.384Z,207
2018-04-14T04:08:53.596Z,206
2018-04-14T04:10:00.533Z,206
2018-04-14T04:11:07.745Z,207
2018-04-14T04:12:14.946Z,207
2018-04-14T04:13:22.148Z,206
2018-04-14T04:14:29.093Z,207
2018-04-14T04:15:36.304Z,206
2018-04-14T04:16:43.227Z,206
2018-04-14T04:17:49.885Z,206
2018-04-14T04:18:57.085Z,207
2018-04-14T04:20:04.291Z,207
2018-04-14T04:21:11.218Z,207
2018-04-14T04:22:18.425Z,207
2018-04-14T04:23:25.629Z,207
2018-04-14T04:24:32.822Z,207
2018-04-14T04:25:40.033Z,206
2018-04-14T04:26:47.232Z,207
2018-04-14T04:27:54.427Z,207
2018-04-14T04:29:01.637Z,207
2018-04-14T04:30:08.836Z,207
2018-04-14T04:31:16.038Z,206
2018-04-14T04:32:22.972Z,207
2018-04-14T04:33:30.178Z,207
2018-04-14T04:34:37.383Z,206
2018-04-14T04:35:44.586Z,207
2018-04-14T04:36:51.787Z,207
2018-04-14T04:37:58.992Z,207
2018-04-14T04:39:06.202Z,207
2018-04-14T04:40:13.407Z,207
2018-04-14T04:41:20.609Z,207
2018-04-14T04:42:27.535Z,207
2018-04-14T04:43:34.733Z,207
2018-04-14T04:44:41.946Z,207
2018-04-14T04:45:49.150Z,206
2018-04-14T04:46:56.368Z,206
2018-04-14T04:48:03.572Z,207
2018-04-14T04:49:10.783Z,207
2018-04-14T04:50:17.999Z,206
2018-04-14T04:51:25.202Z,206
2018-04-14T04:52:32.401Z,206
2018-04-14T04:53:39.333Z,206
2018-04-14T04:54:46.275Z,206
2018-04-14T04:55:53.487Z,206
2018-04-14T04:57:00.691Z,206
2018-04-14T04:58:07.623Z,206
2018-04-14T04:59:14.831Z,206
2018-04-14T05:00:22.028Z,206
2018-04-14T05:01:29.230Z,206
2018-04-14T05:02:36.451Z,206
2018-04-14T05:03:43.657Z,206
2018-04-14T05:04:50.881Z,205
2018-04-14T05:05:57.809Z,206
2018-04-14T05:07:05.016Z,206
2018-04-14T05:08:12.211Z,205
2018-04-14T05:09:19.142Z,206
2018-04-14T05:10:26.353Z,206
2018-04-14T05:11:33.575Z,206
2018-04-14T05:12:40.775Z,206
2018-04-14T05:13:47.998Z,206
2018-04-14T05:14:55.206Z,206
2018-04-14T05:16:01.898Z,206
2018-04-14T05:17:09.105Z,206
2018-04-14T05:18:16.311Z,206
2018-04-14T05:19:23.532Z,206
2018-04-14T05:20:30.739Z,206
2018-04-14T05:21:37.947Z,206
2018-04-14T05:22:44.599Z,205
2018-04-14T05:23:51.547Z,205
2018-04-14T05:24:58.780Z,205
2018-04-14T05:26:05.984Z,205
2018-04-14T05:27:13.186Z,205
2018-04-14T05:28:20.115Z,205
2018-04-14T05:29:27.328Z,205
2018-04-14T05:30:34.530Z,205
2018-04-14T05:31:41.731Z,205
2018-04-14T05:32:48.933Z,205
2018-04-14T05:33:56.159Z,205
2018-04-14T05:35:03.365Z,205
2018-04-14T05:36:10.312Z,205
2018-04-14T05:37:17.525Z,205
2018-04-14T05:38:24.762Z,205
2018-04-14T05:39:31.967Z,205
2018-04-14T05:40:39.191Z,204
2018-04-14T05:41:46.404Z,205
2018-04-14T05:42:53.612Z,204
2018-04-14T05:44:00.813Z,204
2018-04-14T05:45:08.219Z,204
2018-04-14T05:46:15.417Z,204
2018-04-14T05:47:22.866Z,204
2018-04-14T05:48:30.100Z,204
2018-04-14T05:49:37.543Z,204
2018-04-14T05:50:44.754Z,204
2018-04-14T05:51:51.956Z,204
2018-04-14T05:52:59.187Z,204
2018-04-14T05:54:06.112Z,204
2018-04-14T05:55:13.336Z,204
2018-04-14T05:56:20.548Z,204
2018-04-14T05:57:27.753Z,204
2018-04-14T05:58:34.954Z,204
2018-04-14T05:59:42.164Z,205
2018-04-14T06:00:49.400Z,204
2018-04-14T06:01:56.611Z,204
2018-04-14T06:03:03.827Z,205
2018-04-14T06:04:11.024Z,204
2018-04-14T06:05:18.270Z,204
2018-04-14T06:06:25.478Z,204
2018-04-14T06:07:32.943Z,204
2018-04-14T06:08:40.154Z,204
2018-04-14T06:09:47.381Z,204
2018-04-14T06:10:54.587Z,204
2018-04-14T06:12:01.856Z,204
2018-04-14T06:13:09.067Z,204
2018-04-14T06:14:16.316Z,204
2018-04-14T06:15:23.535Z,204
2018-04-14T06:16:30.975Z,205
2018-04-14T06:17:38.178Z,204
2018-04-14T06:18:45.619Z,205
2018-04-14T06:19:52.837Z,205
2018-04-14T06:21:00.063Z,205
2018-04-14T06:22:07.378Z,205
2018-04-14T06:23:14.409Z,204
2018-04-14T06:24:21.617Z,205
2018-04-14T06:25:28.820Z,205
2018-04-14T06:26:36.027Z,205
2018-04-14T06:27:43.247Z,205
2018-04-14T06:28:50.453Z,204
2018-04-14T06:29:57.697Z,204
2018-04-14T06:31:04.910Z,204
2018-04-14T06:32:12.109Z,204
2018-04-14T06:33:19.042Z,204
2018-04-14T06:34:26.246Z,203
2018-04-14T06:35:33.446Z,203
2018-04-14T06:36:40.653Z,203
2018-04-14T06:37:47.861Z,202
2018-04-14T06:38:55.071Z,202
2018-04-14T06:40:02.274Z,201
2018-04-14T06:41:09.205Z,201
2018-04-14T06:42:16.139Z,201
2018-04-14T06:43:23.357Z,201
2018-04-14T06:44:30.289Z,201
2018-04-14T06:45:37.528Z,201
2018-04-14T06:46:44.738Z,200
2018-04-14T06:47:51.947Z,201
2018-04-14T06:48:59.562Z,200
2018-04-14T06:50:06.574Z,200
2018-04-14T06:51:13.813Z,199
2018-04-14T06:52:21.020Z,200
2018-04-14T06:53:28.223Z,200
2018-04-14T06:54:35.435Z,200
2018-04-14T06:55:42.649Z,200
2018-04-14T06:56:49.849Z,200
2018-04-14T06:57:57.060Z,199
2018-04-14T06:59:03.995Z,200
2018-04-14T07:00:11.210Z,200
2018-04-14T07:01:18.424Z,200
2018-04-14T07:02:25.632Z,199
2018-04-14T07:03:32.841Z,200
2018-04-14T07:04:40.185Z,200
2018-04-14T07:05:47.401Z,200
2018-04-14T07:06:54.337Z,200
2018-04-14T07:08:01.264Z,200
2018-04-14T07:09:08.476Z,200
2018-04-14T07:10:15.691Z,200
2018-04-14T07:11:22.902Z,200
2018-04-14T07:12:30.105Z,200
2018-04-14T07:13:37.313Z,200
2018-04-14T07:14:44.522Z,200
2018-04-14T07:15:51.740Z,200
2018-04-14T07:16:58.944Z,200
2018-04-14T07:18:06.149Z,201
2018-04-14T07:19:13.360Z,200
2018-04-14T07:20:20.013Z,200
2018-04-14T07:21:26.948Z,200
2018-04-14T07:22:34.154Z,200
2018-04-14T07:23:41.600Z,199
2018-04-14T07:24:48.529Z,200
2018-04-14T07:25:55.735Z,200
2018-04-14T07:27:02.942Z,200
2018-04-14T07:28:10.167Z,200
2018-04-14T07:29:17.392Z,200
2018-04-14T07:30:24.639Z,200
2018-04-14T07:31:31.856Z,200
2018-04-14T07:32:39.071Z,200
2018-04-14T07:33:46.010Z,200
2018-04-14T07:34:53.259Z,200
2018-04-14T07:36:00.185Z,200
2018-04-14T07:37:07.119Z,200
2018-04-14T07:38:13.790Z,200
2018-04-14T07:39:21.001Z,200
2018-04-14T07:40:27.657Z,200
2018-04-14T07:41:34.867Z,199
2018-04-14T07:42:42.081Z,199
2018-04-14T07:43:49.291Z,199
2018-04-14T07:44:56.277Z,199
2018-04-14T07:46:03.532Z,200
2018-04-14T07:47:10.735Z,200
2018-04-14T07:48:17.947Z,199
2018-04-14T07:49:25.154Z,199
2018-04-14T07:50:32.364Z,198
2018-04-14T07:51:39.692Z,199
2018-04-14T07:52:46.642Z,199
2018-04-14T07:53:53.848Z,199
2018-04-14T07:55:01.100Z,198
2018-04-14T07:56:08.026Z,199
2018-04-14T07:57:15.236Z,199
2018-04-14T07:58:22.452Z,198
2018-04-14T07:59:29.398Z,198
2018-04-14T08:00:36.616Z,198
2018-04-14T08:01:43.829Z,198
2018-04-14T08:02:51.053Z,198
2018-04-14T08:03:58.287Z,198
2018-04-14T08:05:05.506Z,198
2018-04-14T08:06:12.824Z,198
2018-04-14T08:07:19.809Z,198
2018-04-14T08:08:27.019Z,199
2018-04-14T08:09:34.231Z,199
2018-04-14T08:10:41.468Z,198
2018-04-14T08:11:48.397Z,198
2018-04-14T08:12:55.614Z,198
2018-04-14T08:14:02.843Z,198
2018-04-14T08:15:10.062Z,197
2018-04-14T08:16:17.005Z,197
2018-04-14T08:17:23.949Z,198
2018-04-14T08:18:30.615Z,199
2018-04-14T08:19:37.825Z,199
2018-04-14T08:20:45.036Z,200
2018-04-14T08:21:52.252Z,199
2018-04-14T08:22:59.481Z,199
2018-04-14T08:24:06.409Z,199
2018-04-14T08:25:13.340Z,199
2018-04-14T08:26:20.397Z,199
2018-04-14T08:27:27.339Z,199
2018-04-14T08:28:34.552Z,199
2018-04-14T08:29:41.513Z,199
2018-04-14T08:30:48.976Z,199
2018-04-14T08:31:56.145Z,198
2018-04-14T08:33:03.352Z,198
2018-04-14T08:34:10.796Z,199
2018-04-14T08:35:18.011Z,199
2018-04-14T08:36:25.238Z,199
2018-04-14T08:37:32.619Z,199
2018-04-14T08:38:39.831Z,198
2018-04-14T08:39:47.068Z,198
2018-04-14T08:40:54.301Z,198
2018-04-14T08:42:01.514Z,199
2018-04-14T08:43:08.757Z,199
2018-04-14T08:44:15.973Z,198
2018-04-14T08:45:23.415Z,200
2018-04-14T08:46:30.628Z,199
2018-04-14T08:47:38.069Z,199
2018-04-14T08:48:45.282Z,198
2018-04-14T08:49:52.728Z,198
2018-04-14T08:50:59.942Z,199
2018-04-14T08:52:07.165Z,199
2018-04-14T08:53:14.388Z,199
2018-04-14T08:54:21.620Z,197
2018-04-14T08:55:28.563Z,197
2018-04-14T08:56:35.799Z,196
2018-04-14T08:57:43.013Z,197
2018-04-14T08:58:50.230Z,198
2018-04-14T08:59:57.444Z,198
2018-04-14T09:01:04.892Z,197
2018-04-14T09:02:12.111Z,196
2018-04-14T09:03:19.330Z,196
2018-04-14T09:04:26.567Z,196
2018-04-14T09:05:33.786Z,196
2018-04-14T09:06:41.000Z,194
2018-04-14T09:07:48.218Z,193
2018-04-14T09:08:55.438Z,192
2018-04-14T09:10:02.657Z,191
2018-04-14T09:11:09.596Z,191
2018-04-14T09:12:16.805Z,192
2018-04-14T09:13:24.038Z,193
2018-04-14T09:14:31.271Z,192
2018-04-14T09:15:38.483Z,192
2018-04-14T09:16:45.937Z,192
2018-04-14T09:17:53.149Z,191
2018-04-14T09:19:00.110Z,191
2018-04-14T09:20:07.045Z,191
2018-04-14T09:21:14.030Z,191
2018-04-14T09:22:21.250Z,192
2018-04-14T09:23:28.727Z,191
2018-04-14T09:24:36.158Z,192
2018-04-14T09:25:43.614Z,194
2018-04-14T09:26:50.851Z,194
2018-04-14T09:27:58.080Z,193
2018-04-14T09:29:05.294Z,192
2018-04-14T09:30:12.515Z,191
2018-04-14T09:31:19.732Z,190
2018-04-14T09:32:26.964Z,190
2018-04-14T09:33:34.217Z,189
2018-04-14T09:34:41.476Z,190
2018-04-14T09:35:48.413Z,192
2018-04-14T09:36:55.660Z,192
2018-04-14T09:38:02.897Z,192
2018-04-14T09:39:09.892Z,191
2018-04-14T09:40:16.838Z,192
2018-04-14T09:41:24.050Z,191
2018-04-14T09:42:31.279Z,192
2018-04-14T09:43:38.495Z,192
2018-04-14T09:44:45.733Z,192
2018-04-14T09:45:52.696Z,193
2018-04-14T09:46:59.660Z,192
2018-04-14T09:48:06.882Z,191
2018-04-14T09:49:14.119Z,190
2018-04-14T09:50:21.058Z,190
2018-04-14T09:51:27.997Z,192
2018-04-14T09:52:35.248Z,193
2018-04-14T09:53:42.475Z,193
2018-04-14T09:54:49.692Z,192
2018-04-14T09:55:56.905Z,193
2018-04-14T09:57:03.850Z,191
2018-04-14T09:58:11.105Z,192
2018-04-14T09:59:18.318Z,192
2018-04-14T10:00:25.549Z,190
2018-04-14T10:01:32.764Z,189
2018-04-14T10:02:39.983Z,190
2018-04-14T10:03:47.212Z,190
2018-04-14T10:04:54.449Z,189
2018-04-14T10:06:01.694Z,189
2018-04-14T10:07:08.938Z,187
2018-04-14T10:08:15.875Z,185
2018-04-14T10:09:22.821Z,183
2018-04-14T10:10:30.157Z,182
2018-04-14T10:11:37.673Z,180
2018-04-14T10:12:44.882Z,180
2018-04-14T10:13:52.098Z,180
2018-04-14T10:14:59.318Z,179
2018-04-14T22:00:06.640Z,249
2018-04-14T22:01:13.859Z,226
2018-04-14T22:02:21.066Z,222
2018-04-14T22:03:28.275Z,220
2018-04-14T22:04:35.480Z,218
2018-04-14T22:05:42.693Z,217
2018-04-14T22:06:49.913Z,216
2018-04-14T22:07:57.134Z,216
2018-04-14T22:09:04.359Z,215
2018-04-14T22:10:11.299Z,214
2018-04-14T22:11:18.527Z,214
2018-04-14T22:12:25.183Z,214
2018-04-14T22:13:32.385Z,213
2018-04-14T22:14:39.321Z,213
2018-04-14T22:15:46.281Z,213
2018-04-14T22:16:53.218Z,213
2018-04-14T22:18:00.436Z,213
2018-04-14T22:19:07.388Z,212
2018-04-14T22:20:14.830Z,213
2018-04-14T22:21:22.033Z,212
2018-04-14T22:22:29.493Z,212
2018-04-14T22:23:36.691Z,212
2018-04-14T22:24:43.922Z,212
2018-04-14T22:25:51.160Z,212
2018-04-14T22:26:58.383Z,212
2018-04-14T22:28:05.596Z,212
2018-04-14T22:29:12.807Z,211
2018-04-14T22:30:20.012Z,212
2018-04-14T22:31:27.220Z,212
2018-04-14T22:32:34.145Z,211
2018-04-14T22:33:41.354Z,211
2018-04-14T22:34:48.283Z,211
2018-04-14T22:35:55.488Z,211
2018-04-14T22:37:02.697Z,211
2018-04-14T22:38:09.916Z,211
2018-04-14T22:39:17.173Z,211
2018-04-14T22:40:24.371Z,211
2018-04-14T22:41:31.583Z,212
2018-04-14T22:42:38.805Z,212
2018-04-14T22:43:46.019Z,212
2018-04-14T22:44:53.260Z,212
2018-04-14T22:46:00.196Z,211
2018-04-14T22:47:07.429Z,212
2018-04-14T22:48:14.648Z,212
2018-04-14T22:49:21.889Z,212
2018-04-14T22:50:29.101Z,212
2018-04-14T22:51:36.543Z,212
2018-04-14T22:52:43.746Z,212
2018-04-14T22:53:50.975Z,212
2018-04-14T22:54:58.203Z,212
2018-04-14T22:56:05.429Z,211
2018-04-14T22:57:12.632Z,211
2018-04-14T22:58:19.862Z,211
2018-04-14T22:59:26.799Z,211
2018-04-14T23:00:34.042Z,211
2018-04-14T23:01:41.256Z,211
2018-04-14T23:02:48.501Z,211
2018-04-14T23:03:55.705Z,211
2018-04-14T23:05:03.151Z,211
2018-04-14T23:06:10.383Z,211
2018-04-14T23:07:17.311Z,211
2018-04-14T23:08:24.549Z,211
2018-04-14T23:09:31.762Z,211
2018-04-14T23:10:38.408Z,211
2018-04-14T23:11:45.647Z,212
2018-04-14T23:12:52.859Z,212
2018-04-14T23:14:00.098Z,212
2018-04-14T23:15:07.303Z,212
2018-04-14T23:16:14.535Z,212
2018-04-14T23:17:21.744Z,212
2018-04-14T23:18:28.693Z,212
2018-04-14T23:19:35.626Z,212
2018-04-14T23:20:42.862Z,212
2018-04-14T23:21:50.113Z,212
2018-04-14T23:22:57.540Z,212
2018-04-14T23:24:04.756Z,212
2018-04-14T23:25:11.964Z,212
2018-04-14T23:26:19.193Z,212
2018-04-14T23:27:26.398Z,211
2018-04-14T23:28:33.377Z,212
2018-04-14T23:29:40.571Z,211
2018-04-14T23:30:47.780Z,211
2018-04-14T23:31:54.712Z,211
2018-04-14T23:33:01.385Z,211
2018-04-14T23:34:08.593Z,211
2018-04-14T23:35:15.815Z,211
2018-04-14T23:36:23.054Z,211
2018-04-14T23:37:30.263Z,211
2018-04-14T23:38:37.442Z,211
2018-04-14T23:39:44.648Z,211
2018-04-14T23:40:52.072Z,212
2018-04-14T23:41:59.290Z,212
2018-04-14T23:43:06.705Z,212
2018-04-14T23:44:13.939Z,212
2018-04-14T23:45:20.880Z,212
2018-04-14T23:46:28.087Z,212
2018-04-14T23:47:35.294Z,213
2018-04-14T23:48:42.518Z,213
2018-04-14T23:49:49.724Z,213
2018-04-14T23:50:56.929Z,213
2018-04-14T23:52:04.368Z,213
2018-04-14T23:53:11.583Z,213
2018-04-14T23:54:19.024Z,213
2018-04-14T23:55:26.252Z,213
2018-04-14T23:56:33.674Z,213
2018-04-14T23:57:40.881Z,214
2018-04-14T23:58:48.320Z,213
2018-04-14T23:59:55.531Z,213
